Sardinia, Italy
Current Conditions -  °F | °C
As of 1:50 PM on Thursday 30 Oct 2014 (Local Time) from LIEE Reporting Station
Few Clouds Few Clouds  
Wind Chill: 72°   Ceiling: Unl
Heat Index: 72°   Visibility: 6mi
Dew Point: 48°   Wind: 6mph
Humidity: 43%   Direction: 270°W
Pressure: 30.15"   Gusts: NA
Location:  39.25°N, 9.05°E
Report Text: LIEE 301250Z 27005KT 220V320 9999 FEW025 22/09 Q1021
Loading
Personal Weather Stations






























Interactive Weather Map
Tropical Storm Tracking
New forecast layout! Learn more

10-Day Weather Forecast

Advertisements
Track Severe Weather on mobile